createdAt,value
2022-08-22T00:01:35.250Z,80.34
2022-08-22T00:02:46.132Z,77.28
2022-08-22T00:02:46.510Z,79.86
2022-08-22T00:04:33.329Z,80.08
2022-08-22T00:07:36.203Z,80.20
2022-08-22T00:10:25.133Z,80.30
2022-08-22T00:13:27.804Z,80.64
2022-08-22T00:16:13.564Z,80.95
2022-08-22T00:19:12.221Z,81.01
2022-08-22T00:21:53.133Z,81.82
2022-08-22T00:24:58.868Z,81.80
2022-08-22T00:27:45.154Z,81.44
2022-08-22T00:30:17.378Z,81.67
2022-08-22T00:32:59.277Z,81.26
2022-08-22T00:36:03.669Z,81.28
2022-08-22T00:38:38.820Z,81.87
2022-08-22T00:41:17.717Z,81.89
2022-08-22T00:44:17.440Z,81.83
2022-08-22T00:47:11.240Z,81.86
2022-08-22T00:50:07.849Z,82.22
2022-08-22T00:53:02.124Z,81.99
2022-08-22T00:55:41.004Z,82.24
2022-08-22T00:58:51.694Z,82.27
2022-08-22T01:01:30.336Z,82.68
2022-08-22T01:04:53.006Z,82.84
2022-08-22T01:07:42.879Z,82.71
2022-08-22T01:10:50.132Z,82.76
2022-08-22T01:13:39.775Z,82.68
2022-08-22T01:17:02.455Z,82.39
2022-08-22T01:20:28.336Z,82.78
2022-08-22T01:23:29.199Z,82.98
2022-08-22T01:26:41.090Z,83.15
2022-08-22T01:29:54.237Z,83.55
2022-08-22T01:32:56.796Z,83.35
2022-08-22T01:35:56.501Z,83.16
2022-08-22T01:38:51.642Z,83.28
2022-08-22T01:41:57.383Z,83.32
2022-08-22T01:44:38.934Z,83.75
2022-08-22T01:47:27.129Z,83.90
2022-08-22T01:50:00.527Z,83.80
2022-08-22T01:52:45.037Z,83.72
2022-08-22T01:55:29.843Z,83.50
2022-08-22T01:58:01.776Z,84.01
2022-08-22T02:00:47.560Z,83.85
2022-08-22T02:04:03.109Z,83.91
2022-08-22T02:06:51.562Z,83.24
2022-08-22T02:09:42.015Z,82.29
2022-08-22T02:12:24.271Z,82.32
2022-08-22T02:15:15.523Z,82.40
2022-08-22T02:18:06.839Z,83.02
2022-08-22T02:20:48.711Z,83.23
2022-08-22T02:23:44.080Z,82.77
2022-08-22T02:26:19.235Z,83.13
2022-08-22T02:28:58.487Z,83.27
2022-08-22T02:31:45.392Z,83.51
2022-08-22T02:34:32.434Z,83.40
2022-08-22T02:37:22.035Z,83.20
2022-08-22T02:40:15.149Z,82.91
2022-08-22T02:42:48.170Z,84.15
2022-08-22T02:45:38.822Z,83.42
2022-08-22T02:48:17.227Z,83.59
2022-08-22T02:51:01.841Z,83.78
2022-08-22T02:53:53.007Z,84.22
2022-08-22T02:56:34.989Z,84.01
2022-08-22T02:59:27.163Z,83.64
2022-08-22T03:01:56.436Z,83.87
2022-08-22T03:04:43.432Z,84.02
2022-08-22T03:07:26.475Z,83.89
2022-08-22T03:10:26.388Z,84.09
2022-08-22T03:13:07.221Z,84.50
2022-08-22T03:16:03.276Z,83.66
2022-08-22T03:19:02.539Z,83.37
2022-08-22T03:21:37.288Z,84.27
2022-08-22T03:24:35.281Z,83.95
2022-08-22T03:27:33.032Z,83.54
2022-08-22T03:30:44.904Z,83.96
2022-08-22T03:33:31.257Z,84.03
2022-08-22T03:36:22.636Z,83.96
2022-08-22T03:39:08.829Z,83.55
2022-08-22T03:42:16.058Z,83.06
2022-08-22T03:45:07.196Z,83.52
2022-08-22T03:48:25.876Z,83.88
2022-08-22T03:51:20.669Z,83.77
2022-08-22T03:54:21.807Z,83.79
2022-08-22T03:57:52.012Z,84.38
2022-08-22T04:00:36.133Z,85.13
2022-08-22T04:03:35.882Z,84.93
2022-08-22T04:06:25.708Z,85.06
2022-08-22T04:09:34.298Z,83.98
2022-08-22T04:12:55.455Z,85.58
2022-08-22T04:15:41.217Z,85.52
2022-08-22T04:19:11.410Z,84.83
2022-08-22T04:22:04.517Z,84.48
2022-08-22T04:24:55.173Z,84.51
2022-08-22T04:27:38.284Z,84.39
2022-08-22T04:30:26.740Z,84.17
2022-08-22T04:33:25.712Z,84.23
2022-08-22T04:36:10.134Z,84.53
2022-08-22T04:38:54.777Z,84.52
2022-08-22T04:42:16.015Z,84.39
2022-08-22T04:45:23.682Z,84.20
2022-08-22T04:48:34.707Z,84.21
2022-08-22T04:51:12.821Z,84.68
2022-08-22T04:54:14.990Z,83.79
2022-08-22T04:57:09.271Z,84.39
2022-08-22T04:59:37.040Z,84.30
2022-08-22T05:02:11.239Z,83.86
2022-08-22T05:05:05.452Z,83.43
2022-08-22T05:07:47.202Z,82.52
2022-08-22T05:10:23.247Z,83.00
2022-08-22T05:13:01.178Z,83.14
2022-08-22T05:15:36.920Z,83.45
2022-08-22T05:18:23.834Z,83.40
2022-08-22T05:21:02.237Z,83.29
2022-08-22T05:23:43.184Z,82.99
2022-08-22T05:26:13.087Z,83.19
2022-08-22T05:28:52.962Z,82.86
2022-08-22T05:31:40.434Z,83.76
2022-08-22T05:34:33.130Z,83.73
2022-08-22T05:37:26.776Z,83.81
2022-08-22T05:40:01.084Z,83.18
2022-08-22T05:42:37.429Z,83.41
2022-08-22T05:45:11.570Z,83.97
2022-08-22T05:47:53.920Z,84.17
2022-08-22T05:50:35.013Z,85.03
2022-08-22T05:53:34.773Z,84.93
2022-08-22T05:56:12.620Z,85.61
2022-08-22T05:58:39.718Z,84.18
2022-08-22T06:01:21.418Z,83.73
2022-08-22T06:04:22.903Z,83.76
2022-08-22T06:06:59.851Z,83.29
2022-08-22T06:09:46.601Z,83.62
2022-08-22T06:12:20.177Z,83.35
2022-08-22T06:15:21.112Z,83.78
2022-08-22T06:17:55.519Z,84.59
2022-08-22T06:20:56.836Z,83.94
2022-08-22T06:23:43.591Z,83.92
2022-08-22T06:26:20.375Z,83.44
2022-08-22T06:28:54.474Z,83.47
2022-08-22T06:31:34.612Z,84.21
2022-08-22T06:34:29.312Z,83.89
2022-08-22T06:37:01.828Z,84.17
2022-08-22T06:39:34.592Z,83.69
2022-08-22T06:42:05.185Z,83.67
2022-08-22T06:44:44.280Z,82.94
2022-08-22T06:47:23.266Z,83.47
2022-08-22T06:49:59.825Z,83.60
2022-08-22T06:52:30.761Z,83.13
2022-08-22T06:55:05.695Z,83.23
2022-08-22T06:58:03.069Z,82.85
2022-08-22T07:00:34.628Z,83.17
2022-08-22T07:03:15.812Z,82.49
2022-08-22T07:05:43.644Z,82.00
2022-08-22T07:08:14.513Z,82.07
2022-08-22T07:10:45.206Z,81.84
2022-08-22T07:13:17.679Z,81.61
2022-08-22T07:15:54.884Z,81.12
2022-08-22T07:18:28.483Z,81.24
2022-08-22T07:21:02.844Z,80.99
2022-08-22T07:23:37.107Z,80.83
2022-08-22T07:26:28.273Z,81.18
2022-08-22T07:29:34.092Z,81.09
2022-08-22T07:32:20.380Z,80.74
2022-08-22T07:35:21.584Z,80.27
2022-08-22T07:37:57.662Z,80.41
2022-08-22T07:40:55.646Z,80.98
2022-08-22T07:43:43.369Z,80.06
2022-08-22T07:46:47.973Z,79.90
2022-08-22T07:49:57.661Z,79.41
2022-08-22T07:52:26.707Z,78.14
2022-08-22T07:55:04.796Z,76.99
2022-08-22T07:57:40.923Z,76.79
2022-08-22T08:00:16.963Z,74.67
2022-08-22T08:02:55.729Z,73.30
2022-08-22T08:05:27.387Z,72.84
2022-08-22T08:07:56.945Z,71.32
2022-08-22T08:10:32.530Z,70.77
2022-08-22T08:13:05.421Z,69.60
2022-08-22T08:15:36.947Z,69.14
2022-08-22T08:18:11.279Z,69.33
2022-08-22T08:20:38.527Z,69.16
2022-08-22T08:23:10.023Z,68.94
2022-08-22T08:26:04.248Z,70.01
2022-08-22T08:28:34.868Z,69.20
2022-08-22T08:31:22.985Z,67.93
2022-08-22T08:33:58.695Z,67.73
2022-08-22T08:37:13.974Z,69.85
2022-08-22T08:39:50.645Z,67.89
2022-08-22T08:43:11.042Z,66.31
2022-08-22T08:46:15.018Z,65.73
2022-08-22T08:49:15.948Z,65.79
2022-08-22T08:52:07.925Z,63.54
2022-08-22T08:55:19.620Z,63.06
2022-08-22T08:58:43.259Z,63.14
2022-08-22T09:01:36.006Z,62.72
2022-08-22T09:04:53.992Z,59.72
2022-08-22T09:07:51.257Z,59.67
2022-08-22T09:10:57.146Z,59.86
2022-08-22T09:13:58.180Z,58.93
2022-08-22T09:16:58.631Z,59.58
2022-08-22T09:19:59.950Z,59.26
2022-08-22T09:23:23.430Z,55.11
2022-08-22T09:26:12.807Z,56.42
2022-08-22T09:29:10.762Z,54.90
2022-08-22T09:32:00.285Z,56.11
2022-08-22T09:34:49.146Z,55.35
2022-08-22T09:37:30.735Z,52.87
2022-08-22T09:43:21.303Z,52.65
2022-08-22T09:46:18.565Z,53.00
2022-08-22T09:49:14.552Z,51.68
2022-08-22T09:52:42.687Z,50.89
2022-08-22T09:55:41.012Z,48.05
2022-08-22T09:58:30.957Z,49.23
2022-08-22T10:01:10.997Z,48.86
2022-08-22T10:04:14.524Z,47.05
2022-08-22T10:07:11.194Z,52.20
2022-08-22T10:10:09.138Z,50.61
2022-08-22T10:13:10.233Z,49.26
2022-08-22T10:15:57.508Z,50.73
2022-08-22T10:19:26.177Z,48.30
2022-08-22T10:22:41.502Z,49.57
2022-08-22T10:25:32.257Z,46.34
2022-08-22T10:28:32.485Z,47.47
2022-08-22T10:31:20.832Z,47.00
2022-08-22T10:34:12.527Z,48.80
2022-08-22T10:37:10.343Z,48.39
2022-08-22T10:39:50.186Z,48.95
2022-08-22T10:42:35.173Z,48.86
2022-08-22T10:45:35.917Z,45.29
2022-08-22T10:48:10.471Z,47.22
2022-08-22T10:50:49.228Z,47.19
2022-08-22T10:53:48.316Z,47.43
2022-08-22T10:56:32.324Z,49.11
2022-08-22T10:59:39.219Z,44.66
2022-08-22T11:02:35.427Z,47.24
2022-08-22T11:05:35.006Z,44.05
2022-08-22T11:08:37.903Z,42.81
2022-08-22T11:11:24.887Z,43.36
2022-08-22T11:14:50.846Z,44.41
2022-08-22T11:18:05.996Z,44.30
2022-08-22T11:20:54.787Z,47.35
2022-08-22T11:24:04.080Z,44.84
2022-08-22T11:27:12.944Z,43.96
2022-08-22T11:30:08.175Z,48.61
2022-08-22T11:33:05.504Z,44.82
2022-08-22T11:35:44.495Z,47.54
2022-08-22T11:38:37.532Z,43.61
2022-08-22T11:41:32.597Z,47.37
2022-08-22T11:44:19.813Z,46.11
2022-08-22T11:46:50.675Z,47.92
2022-08-22T11:50:10.781Z,46.55
2022-08-22T11:52:53.138Z,47.62
2022-08-22T11:55:34.686Z,51.04
2022-08-22T11:58:29.326Z,47.87
2022-08-22T12:01:17.429Z,46.62
2022-08-22T12:04:03.293Z,46.31
2022-08-22T12:06:50.259Z,47.43
2022-08-22T12:09:27.440Z,52.26
2022-08-22T12:12:11.761Z,48.03
2022-08-22T12:14:47.240Z,43.06
2022-08-22T12:17:55.203Z,45.14
2022-08-22T12:20:58.428Z,44.75
2022-08-22T12:23:43.259Z,43.60
2022-08-22T12:26:34.117Z,47.35
2022-08-22T12:29:44.930Z,44.75
2022-08-22T12:32:35.502Z,44.13
2022-08-22T12:35:29.728Z,44.29
2022-08-22T12:38:37.865Z,47.52
2022-08-22T12:41:48.267Z,44.26
2022-08-22T12:44:42.332Z,46.00
2022-08-22T12:47:23.230Z,42.11
2022-08-22T12:50:17.787Z,45.42
2022-08-22T12:53:11.006Z,46.07
2022-08-22T12:56:10.281Z,42.20
2022-08-22T12:59:22.219Z,46.69
2022-08-22T13:01:54.673Z,47.14
2022-08-22T13:04:33.443Z,48.31
2022-08-22T13:07:30.133Z,44.44
2022-08-22T13:10:25.983Z,44.54
2022-08-22T13:12:56.834Z,47.90
2022-08-22T13:15:53.769Z,48.04
2022-08-22T13:18:30.749Z,46.06
2022-08-22T13:21:04.456Z,48.04
2022-08-22T13:23:42.953Z,48.20
2022-08-22T13:26:32.073Z,46.88
2022-08-22T13:29:26.996Z,44.67
2022-08-22T13:32:01.881Z,41.55
2022-08-22T13:34:45.117Z,46.33
2022-08-22T13:37:24.410Z,46.03
2022-08-22T13:39:59.580Z,47.94
2022-08-22T13:42:31.317Z,47.11
2022-08-22T13:45:09.782Z,47.23
2022-08-22T13:47:49.847Z,45.00
2022-08-22T13:50:27.552Z,46.42
2022-08-22T13:53:11.944Z,46.76
2022-08-22T13:55:49.460Z,45.19
2022-08-22T13:58:28.728Z,42.91
2022-08-22T14:01:28.373Z,42.50
2022-08-22T14:04:32.101Z,43.34
2022-08-22T14:07:03.698Z,45.76
2022-08-22T14:09:42.866Z,47.21
2022-08-22T14:12:18.815Z,44.73
2022-08-22T14:14:55.744Z,47.13
2022-08-22T14:17:42.520Z,46.38
2022-08-22T14:20:31.981Z,47.14
2022-08-22T14:23:16.352Z,46.35
2022-08-22T14:25:44.268Z,44.13
2022-08-22T14:28:35.523Z,46.12
2022-08-22T14:31:13.210Z,45.03
2022-08-22T14:33:51.201Z,46.16
2022-08-22T14:36:25.307Z,43.65
2022-08-22T14:39:09.495Z,45.03
2022-08-22T14:41:59.420Z,45.56
2022-08-22T14:44:51.789Z,46.66
2022-08-22T14:47:55.081Z,46.04
2022-08-22T14:50:54.915Z,46.03
2022-08-22T14:53:25.545Z,43.87
2022-08-22T14:56:33.694Z,41.26
2022-08-22T14:59:12.484Z,46.25
2022-08-22T15:02:29.283Z,45.89
2022-08-22T15:05:05.629Z,45.04
2022-08-22T15:07:36.444Z,43.80
2022-08-22T15:10:32.957Z,45.27
2022-08-22T15:13:07.779Z,43.17
2022-08-22T15:15:53.386Z,43.70
2022-08-22T15:18:28.767Z,43.83
2022-08-22T15:21:27.527Z,45.03
2022-08-22T15:23:59.876Z,45.14
2022-08-22T15:26:38.670Z,44.93
2022-08-22T15:29:27.832Z,45.38
2022-08-22T15:32:01.561Z,45.83
2022-08-22T15:34:41.789Z,44.95
2022-08-22T15:37:20.828Z,45.87
2022-08-22T15:40:33.707Z,45.55
2022-08-22T15:43:36.076Z,45.67
2022-08-22T15:46:21.248Z,45.08
2022-08-22T15:49:06.655Z,46.22
2022-08-22T15:52:00.826Z,46.26
2022-08-22T15:54:46.812Z,46.64
2022-08-22T15:57:39.868Z,47.78
2022-08-22T16:00:45.176Z,46.17
2022-08-22T16:03:36.166Z,45.09
2022-08-22T16:06:08.143Z,47.01
2022-08-22T16:08:50.376Z,45.71
2022-08-22T16:11:39.195Z,45.71
2022-08-22T16:14:19.060Z,44.04
2022-08-22T16:17:03.870Z,46.40
2022-08-22T16:19:35.740Z,44.08
2022-08-22T16:22:06.916Z,45.54
2022-08-22T16:24:59.308Z,45.31
2022-08-22T16:27:27.825Z,46.75
2022-08-22T16:30:09.338Z,46.14
2022-08-22T16:32:37.085Z,46.70
2022-08-22T16:35:04.567Z,45.33
2022-08-22T16:37:47.947Z,44.52
2022-08-22T16:40:25.775Z,46.52
2022-08-22T16:43:17.793Z,46.23
2022-08-22T16:45:46.160Z,47.12
2022-08-22T16:48:32.670Z,46.91
2022-08-22T16:51:18.651Z,44.24
2022-08-22T16:54:13.362Z,47.37
2022-08-22T16:57:05.482Z,46.51
2022-08-22T17:00:08.955Z,46.97
2022-08-22T17:03:12.207Z,46.49
2022-08-22T17:06:14.000Z,46.94
2022-08-22T17:09:21.848Z,47.47
2022-08-22T17:12:29.388Z,48.64
2022-08-22T17:15:13.948Z,49.92
2022-08-22T17:18:21.881Z,48.53
2022-08-22T17:21:14.605Z,48.13
2022-08-22T17:24:31.655Z,47.72
2022-08-22T17:27:19.604Z,49.51
2022-08-22T17:30:23.347Z,49.56
2022-08-22T17:33:11.231Z,49.64
2022-08-22T17:36:36.011Z,49.82
2022-08-22T17:39:21.728Z,50.11
2022-08-22T17:42:23.299Z,49.93
2022-08-22T17:45:16.001Z,50.42
2022-08-22T17:48:00.555Z,50.75
2022-08-22T17:50:41.605Z,51.78
2022-08-22T17:53:51.331Z,52.16
2022-08-22T17:56:29.367Z,51.99
2022-08-22T17:59:25.725Z,52.08
2022-08-22T18:02:27.938Z,53.37
2022-08-22T18:05:13.427Z,51.91
2022-08-22T18:11:28.206Z,53.26
2022-08-22T18:14:21.435Z,54.16
2022-08-22T18:16:52.386Z,54.55
2022-08-22T18:19:37.419Z,53.64
2022-08-22T18:22:19.263Z,52.99
2022-08-22T18:25:02.607Z,53.83
2022-08-22T18:27:57.995Z,53.93
2022-08-22T18:31:02.270Z,54.40
2022-08-22T18:33:41.308Z,54.11
2022-08-22T18:36:23.175Z,54.68
2022-08-22T18:39:07.475Z,56.27
2022-08-22T18:42:03.943Z,57.29
2022-08-22T18:44:35.104Z,56.88
2022-08-22T18:47:21.710Z,58.07
2022-08-22T18:49:54.054Z,58.49
2022-08-22T18:52:27.131Z,59.20
2022-08-22T18:55:15.627Z,59.65
2022-08-22T18:58:11.063Z,60.07
2022-08-22T19:01:44.896Z,60.62
2022-08-22T19:04:34.288Z,59.16
2022-08-22T19:07:29.821Z,60.61
2022-08-22T19:10:54.785Z,62.24
2022-08-22T19:14:05.585Z,62.54
2022-08-22T19:16:47.494Z,63.27
2022-08-22T19:20:14.640Z,63.54
2022-08-22T19:22:42.148Z,64.19
2022-08-22T19:25:12.450Z,64.55
2022-08-22T19:27:44.723Z,64.80
2022-08-22T19:30:47.417Z,65.22
2022-08-22T19:33:38.428Z,65.62
2022-08-22T19:36:10.829Z,65.99
2022-08-22T19:39:08.895Z,66.75
2022-08-22T19:41:52.659Z,67.06
2022-08-22T19:44:19.550Z,67.44
2022-08-22T19:47:10.831Z,67.59
2022-08-22T19:49:54.314Z,67.67
2022-08-22T19:52:32.795Z,67.91
2022-08-22T19:55:19.679Z,68.18
2022-08-22T19:57:52.649Z,68.34
2022-08-22T20:00:43.520Z,68.55
2022-08-22T20:03:19.340Z,68.24
2022-08-22T20:06:43.021Z,68.55
2022-08-22T20:09:57.301Z,68.05
2022-08-22T20:12:33.637Z,67.60
2022-08-22T20:15:17.784Z,68.44
2022-08-22T20:18:11.632Z,68.20
2022-08-22T20:20:55.588Z,68.55
2022-08-22T20:23:31.051Z,68.98
2022-08-22T20:25:59.499Z,68.65
2022-08-22T20:28:47.364Z,68.36
2022-08-22T20:31:27.214Z,69.00
2022-08-22T20:34:02.263Z,69.40
2022-08-22T20:36:30.366Z,68.79
2022-08-22T20:39:11.148Z,68.76
2022-08-22T20:41:46.570Z,66.90
2022-08-22T20:44:30.712Z,67.16
2022-08-22T20:47:11.023Z,66.58
2022-08-22T20:49:48.365Z,67.08
2022-08-22T20:52:32.181Z,68.22
2022-08-22T20:55:13.470Z,66.93
2022-08-22T20:57:55.822Z,68.41
2022-08-22T21:00:28.599Z,68.25
2022-08-22T21:03:04.293Z,68.55
2022-08-22T21:05:37.101Z,68.75
2022-08-22T21:08:16.095Z,69.10
2022-08-22T21:11:02.009Z,69.25
2022-08-22T21:13:35.420Z,69.88
2022-08-22T21:16:18.981Z,69.57
2022-08-22T21:18:52.764Z,69.58
2022-08-22T21:21:31.656Z,69.52
2022-08-22T21:24:03.626Z,70.03
2022-08-22T21:26:36.909Z,70.21
2022-08-22T21:29:12.441Z,70.46
2022-08-22T21:31:59.120Z,71.17
2022-08-22T21:34:43.143Z,71.51
2022-08-22T21:37:23.164Z,71.19
2022-08-22T21:40:01.224Z,70.53
2022-08-22T21:42:34.667Z,70.62
2022-08-22T21:45:27.748Z,70.47
2022-08-22T21:47:54.866Z,71.42
2022-08-22T21:50:24.453Z,71.57
2022-08-22T21:52:54.408Z,71.84
2022-08-22T21:55:42.955Z,71.61
2022-08-22T21:58:35.143Z,72.33
2022-08-22T22:01:28.564Z,72.82
2022-08-22T22:03:56.731Z,73.17
2022-08-22T22:06:23.656Z,74.06
2022-08-22T22:08:50.892Z,74.30
2022-08-22T22:11:18.404Z,73.80
2022-08-22T22:13:46.965Z,72.85
2022-08-22T22:16:13.985Z,73.67
2022-08-22T22:18:41.181Z,73.87
2022-08-22T22:21:08.704Z,74.49
2022-08-22T22:23:35.780Z,73.66
2022-08-22T22:26:05.365Z,73.71
2022-08-22T22:28:38.562Z,73.56
2022-08-22T22:31:06.367Z,74.45
2022-08-22T22:33:40.835Z,74.51
2022-08-22T22:36:21.773Z,74.30
2022-08-22T22:38:51.679Z,74.36
2022-08-22T22:41:21.099Z,74.60
2022-08-22T22:43:48.007Z,74.36
2022-08-22T22:46:14.995Z,75.91
2022-08-22T22:48:41.935Z,75.42
2022-08-22T22:51:11.163Z,75.90
2022-08-22T22:53:42.717Z,75.87
2022-08-22T22:56:17.645Z,75.62
2022-08-22T22:58:49.059Z,75.41
2022-08-22T23:01:21.572Z,75.46
2022-08-22T23:03:53.897Z,75.99
2022-08-22T23:06:24.139Z,76.58
2022-08-22T23:08:52.702Z,76.52
2022-08-22T23:11:26.009Z,76.23
2022-08-22T23:13:53.714Z,76.54
2022-08-22T23:16:27.824Z,76.69
2022-08-22T23:18:56.023Z,76.91
2022-08-22T23:21:28.129Z,76.62
2022-08-22T23:23:57.935Z,77.11
2022-08-22T23:26:25.728Z,77.08
2022-08-22T23:28:52.928Z,76.54
2022-08-22T23:31:38.715Z,76.46
2022-08-22T23:34:14.087Z,76.47
2022-08-22T23:36:46.116Z,76.24
2022-08-22T23:39:15.036Z,77.65
2022-08-22T23:41:44.754Z,77.33
2022-08-22T23:44:17.988Z,76.89
2022-08-22T23:46:45.443Z,77.46
2022-08-22T23:49:14.270Z,77.33
2022-08-22T23:51:41.896Z,77.59
2022-08-22T23:54:09.491Z,78.59
2022-08-22T23:56:43.788Z,78.68
2022-08-22T23:59:17.389Z,78.55
